sensor_id;sensor_type;location;lat;lon;timestamp;temperature;humidity
66337;SHT30;53139;45.576;5.304;2022-12-31T09:30:11;12.98;83.63
66337;SHT30;53139;45.576;5.304;2022-12-31T09:33:39;13.09;82.91
66337;SHT30;53139;45.576;5.304;2022-12-31T09:36:48;12.99;85.16
66337;SHT30;53139;45.576;5.304;2022-12-31T09:39:49;13.08;85.06
66337;SHT30;53139;45.576;5.304;2022-12-31T09:43:23;13.16;83.81
66337;SHT30;53139;45.576;5.304;2022-12-31T10:00:19;13.67;82.96
66337;SHT30;53139;45.576;5.304;2022-12-31T10:03:50;13.67;81.90
66337;SHT30;53139;45.576;5.304;2022-12-31T10:16:51;13.91;82.46
66337;SHT30;53139;45.576;5.304;2022-12-31T10:23:50;14.23;79.80
66337;SHT30;53139;45.576;5.304;2022-12-31T10:27:06;14.27;79.22
66337;SHT30;53139;45.576;5.304;2022-12-31T10:30:18;14.37;78.57
66337;SHT30;53139;45.576;5.304;2022-12-31T10:33:36;14.46;78.36
66337;SHT30;53139;45.576;5.304;2022-12-31T10:37:07;14.74;76.55
66337;SHT30;53139;45.576;5.304;2022-12-31T10:40:28;14.98;77.30
66337;SHT30;53139;45.576;5.304;2022-12-31T10:54:54;15.03;76.59
66337;SHT30;53139;45.576;5.304;2022-12-31T10:58:28;14.92;77.04
66337;SHT30;53139;45.576;5.304;2022-12-31T11:18:23;15.10;76.34
66337;SHT30;53139;45.576;5.304;2022-12-31T11:21:39;15.53;76.20
66337;SHT30;53139;45.576;5.304;2022-12-31T11:31:15;15.82;74.63
66337;SHT30;53139;45.576;5.304;2022-12-31T11:40:59;15.82;73.87
66337;SHT30;53139;45.576;5.304;2022-12-31T11:44:15;15.92;73.41
66337;SHT30;53139;45.576;5.304;2022-12-31T11:51:00;15.95;72.52
66337;SHT30;53139;45.576;5.304;2022-12-31T11:57:38;16.42;72.74
66337;SHT30;53139;45.576;5.304;2022-12-31T12:00:55;16.16;74.58
66337;SHT30;53139;45.576;5.304;2022-12-31T12:03:58;16.39;74.13
66337;SHT30;53139;45.576;5.304;2022-12-31T12:06:59;16.52;72.89
66337;SHT30;53139;45.576;5.304;2022-12-31T12:10:03;16.77;72.52
66337;SHT30;53139;45.576;5.304;2022-12-31T12:13:20;17.40;70.65
66337;SHT30;53139;45.576;5.304;2022-12-31T12:16:22;16.87;71.97
66337;SHT30;53139;45.576;5.304;2022-12-31T12:19:25;17.50;71.16
66337;SHT30;53139;45.576;5.304;2022-12-31T12:22:28;17.46;68.29
66337;SHT30;53139;45.576;5.304;2022-12-31T12:25:38;17.35;69.76
66337;SHT30;53139;45.576;5.304;2022-12-31T12:28:44;17.30;68.59
66337;SHT30;53139;45.576;5.304;2022-12-31T12:32:05;17.04;70.16
66337;SHT30;53139;45.576;5.304;2022-12-31T12:35:17;16.87;69.69
66337;SHT30;53139;45.576;5.304;2022-12-31T12:38:21;16.52;70.86
66337;SHT30;53139;45.576;5.304;2022-12-31T12:41:23;16.40;71.04
66337;SHT30;53139;45.576;5.304;2022-12-31T12:44:25;16.52;71.50
66337;SHT30;53139;45.576;5.304;2022-12-31T12:47:25;16.29;71.92
66337;SHT30;53139;45.576;5.304;2022-12-31T12:50:42;16.13;72.20
66337;SHT30;53139;45.576;5.304;2022-12-31T12:57:19;16.43;72.30
66337;SHT30;53139;45.576;5.304;2022-12-31T13:00:24;16.16;73.64
66337;SHT30;53139;45.576;5.304;2022-12-31T13:20:40;15.70;74.19
66337;SHT30;53139;45.576;5.304;2022-12-31T13:27:33;16.60;72.18
66337;SHT30;53139;45.576;5.304;2022-12-31T13:30:38;16.39;72.73
66337;SHT30;53139;45.576;5.304;2022-12-31T13:33:44;16.27;71.54
66337;SHT30;53139;45.576;5.304;2022-12-31T13:36:49;16.42;72.52
66337;SHT30;53139;45.576;5.304;2022-12-31T13:46:47;15.91;72.78
66337;SHT30;53139;45.576;5.304;2022-12-31T13:53:50;15.88;73.43
66337;SHT30;53139;45.576;5.304;2022-12-31T13:56:54;15.65;74.82
66337;SHT30;53139;45.576;5.304;2022-12-31T14:00:00;15.51;75.10
66337;SHT30;53139;45.576;5.304;2022-12-31T14:09:34;15.85;74.90
66337;SHT30;53139;45.576;5.304;2022-12-31T14:13:04;15.73;75.21
66337;SHT30;53139;45.576;5.304;2022-12-31T14:26:50;16.95;73.44
66337;SHT30;53139;45.576;5.304;2022-12-31T14:29:58;17.18;75.33
66337;SHT30;53139;45.576;5.304;2022-12-31T14:36:40;17.75;71.70
66337;SHT30;53139;45.576;5.304;2022-12-31T14:43:17;16.73;73.65
66337;SHT30;53139;45.576;5.304;2022-12-31T14:46:27;16.06;75.00
66337;SHT30;53139;45.576;5.304;2022-12-31T14:49:39;16.23;75.02
66337;SHT30;53139;45.576;5.304;2022-12-31T14:53:05;16.29;75.54
66337;SHT30;53139;45.576;5.304;2022-12-31T14:56:27;16.46;76.17
66337;SHT30;53139;45.576;5.304;2022-12-31T14:59:30;15.88;75.53
66337;SHT30;53139;45.576;5.304;2022-12-31T15:02:33;15.94;75.97
66337;SHT30;53139;45.576;5.304;2022-12-31T15:05:36;15.29;77.53
66337;SHT30;53139;45.576;5.304;2022-12-31T15:25:45;14.93;79.37
66337;SHT30;53139;45.576;5.304;2022-12-31T15:29:01;14.71;80.70
66337;SHT30;53139;45.576;5.304;2022-12-31T15:32:19;14.61;81.22
66337;SHT30;53139;45.576;5.304;2022-12-31T15:38:36;14.46;82.16
66337;SHT30;53139;45.576;5.304;2022-12-31T15:41:37;14.33;81.85
66337;SHT30;53139;45.576;5.304;2022-12-31T15:44:52;14.23;83.11
66337;SHT30;53139;45.576;5.304;2022-12-31T15:47:56;14.56;80.51
66337;SHT30;53139;45.576;5.304;2022-12-31T15:51:00;14.23;82.24
66337;SHT30;53139;45.576;5.304;2022-12-31T15:54:01;14.38;80.72
66337;SHT30;53139;45.576;5.304;2022-12-31T15:57:04;14.22;81.17
66337;SHT30;53139;45.576;5.304;2022-12-31T16:00:18;14.20;81.76
66337;SHT30;53139;45.576;5.304;2022-12-31T16:03:26;14.02;82.31
66337;SHT30;53139;45.576;5.304;2022-12-31T16:06:29;14.09;82.23
66337;SHT30;53139;45.576;5.304;2022-12-31T16:09:32;14.05;81.87
66337;SHT30;53139;45.576;5.304;2022-12-31T16:12:38;13.95;82.46
66337;SHT30;53139;45.576;5.304;2022-12-31T16:15:39;13.89;82.82
66337;SHT30;53139;45.576;5.304;2022-12-31T16:18:41;13.82;83.00
66337;SHT30;53139;45.576;5.304;2022-12-31T16:21:54;13.91;82.56
66337;SHT30;53139;45.576;5.304;2022-12-31T16:24:57;13.85;82.81
66337;SHT30;53139;45.576;5.304;2022-12-31T16:28:18;13.94;82.31
66337;SHT30;53139;45.576;5.304;2022-12-31T16:31:19;13.91;82.21
66337;SHT30;53139;45.576;5.304;2022-12-31T16:34:35;13.88;82.26
66337;SHT30;53139;45.576;5.304;2022-12-31T16:37:36;13.92;82.34
66337;SHT30;53139;45.576;5.304;2022-12-31T16:40:36;13.83;82.56
66337;SHT30;53139;45.576;5.304;2022-12-31T16:43:38;13.89;82.42
66337;SHT30;53139;45.576;5.304;2022-12-31T16:46:39;13.86;82.47
66337;SHT30;53139;45.576;5.304;2022-12-31T16:49:40;13.94;81.97
66337;SHT30;53139;45.576;5.304;2022-12-31T16:52:43;13.74;82.92
66337;SHT30;53139;45.576;5.304;2022-12-31T16:56:14;13.67;83.42
66337;SHT30;53139;45.576;5.304;2022-12-31T16:59:25;13.71;83.50
66337;SHT30;53139;45.576;5.304;2022-12-31T17:02:37;13.78;82.52
66337;SHT30;53139;45.576;5.304;2022-12-31T17:09:34;13.71;82.67
66337;SHT30;53139;45.576;5.304;2022-12-31T17:12:45;13.74;82.98
66337;SHT30;53139;45.576;5.304;2022-12-31T17:15:46;13.75;82.36
66337;SHT30;53139;45.576;5.304;2022-12-31T17:18:46;13.55;84.28
66337;SHT30;53139;45.576;5.304;2022-12-31T17:21:47;13.58;83.78
66337;SHT30;53139;45.576;5.304;2022-12-31T17:24:48;13.61;83.83
66337;SHT30;53139;45.576;5.304;2022-12-31T17:28:04;13.82;82.61
66337;SHT30;53139;45.576;5.304;2022-12-31T17:34:33;13.58;84.03
66337;SHT30;53139;45.576;5.304;2022-12-31T17:37:35;13.51;84.22
66337;SHT30;53139;45.576;5.304;2022-12-31T17:40:37;13.67;83.25
66337;SHT30;53139;45.576;5.304;2022-12-31T17:43:38;13.60;83.70
66337;SHT30;53139;45.576;5.304;2022-12-31T17:46:39;13.78;82.89
66337;SHT30;53139;45.576;5.304;2022-12-31T17:49:43;13.63;83.62
66337;SHT30;53139;45.576;5.304;2022-12-31T17:52:45;13.57;83.61
66337;SHT30;53139;45.576;5.304;2022-12-31T17:55:47;13.51;83.81
66337;SHT30;53139;45.576;5.304;2022-12-31T17:58:50;13.57;82.89
66337;SHT30;53139;45.576;5.304;2022-12-31T18:01:51;13.54;83.29
66337;SHT30;53139;45.576;5.304;2022-12-31T18:04:51;13.58;83.66
66337;SHT30;53139;45.576;5.304;2022-12-31T18:07:52;13.26;84.95
66337;SHT30;53139;45.576;5.304;2022-12-31T18:10:53;13.61;82.70
66337;SHT30;53139;45.576;5.304;2022-12-31T18:13:54;13.36;83.77
66337;SHT30;53139;45.576;5.304;2022-12-31T18:16:54;13.33;83.96
66337;SHT30;53139;45.576;5.304;2022-12-31T18:19:55;13.57;83.12
66337;SHT30;53139;45.576;5.304;2022-12-31T18:22:55;13.54;83.10
66337;SHT30;53139;45.576;5.304;2022-12-31T18:25:56;13.34;83.91
66337;SHT30;53139;45.576;5.304;2022-12-31T18:28:58;13.39;83.87
66337;SHT30;53139;45.576;5.304;2022-12-31T18:31:59;13.30;84.42
66337;SHT30;53139;45.576;5.304;2022-12-31T18:34:59;13.36;84.19
66337;SHT30;53139;45.576;5.304;2022-12-31T18:38:01;13.44;83.47
66337;SHT30;53139;45.576;5.304;2022-12-31T18:41:01;13.61;82.67
66337;SHT30;53139;45.576;5.304;2022-12-31T18:44:01;13.60;82.49
66337;SHT30;53139;45.576;5.304;2022-12-31T18:47:02;13.39;83.85
66337;SHT30;53139;45.576;5.304;2022-12-31T18:50:02;13.50;83.29
66337;SHT30;53139;45.576;5.304;2022-12-31T18:53:03;13.57;82.65
66337;SHT30;53139;45.576;5.304;2022-12-31T18:56:04;13.48;82.96
66337;SHT30;53139;45.576;5.304;2022-12-31T18:59:04;13.70;82.63
66337;SHT30;53139;45.576;5.304;2022-12-31T19:02:11;13.68;82.44
66337;SHT30;53139;45.576;5.304;2022-12-31T19:08:21;13.79;82.11
66337;SHT30;53139;45.576;5.304;2022-12-31T19:11:21;13.71;82.29
66337;SHT30;53139;45.576;5.304;2022-12-31T19:14:23;13.53;83.32
66337;SHT30;53139;45.576;5.304;2022-12-31T19:17:24;13.61;83.22
66337;SHT30;53139;45.576;5.304;2022-12-31T19:20:25;13.44;83.70
66337;SHT30;53139;45.576;5.304;2022-12-31T19:23:26;13.55;83.13
66337;SHT30;53139;45.576;5.304;2022-12-31T19:26:26;13.81;81.71
66337;SHT30;53139;45.576;5.304;2022-12-31T19:29:27;13.71;82.00
66337;SHT30;53139;45.576;5.304;2022-12-31T19:32:28;13.86;81.24
66337;SHT30;53139;45.576;5.304;2022-12-31T19:35:33;13.74;82.33
66337;SHT30;53139;45.576;5.304;2022-12-31T19:38:33;13.63;82.87
66337;SHT30;53139;45.576;5.304;2022-12-31T19:41:34;13.44;83.37
66337;SHT30;53139;45.576;5.304;2022-12-31T19:44:34;13.65;82.71
66337;SHT30;53139;45.576;5.304;2022-12-31T19:47:34;13.71;81.96
66337;SHT30;53139;45.576;5.304;2022-12-31T19:50:34;13.42;83.57
66337;SHT30;53139;45.576;5.304;2022-12-31T19:53:35;13.44;83.39
66337;SHT30;53139;45.576;5.304;2022-12-31T19:56:35;13.10;86.63
66337;SHT30;53139;45.576;5.304;2022-12-31T19:59:36;13.54;83.11
66337;SHT30;53139;45.576;5.304;2022-12-31T20:02:37;13.54;83.06
66337;SHT30;53139;45.576;5.304;2022-12-31T20:05:37;13.40;84.16
66337;SHT30;53139;45.576;5.304;2022-12-31T20:08:38;13.57;82.66
66337;SHT30;53139;45.576;5.304;2022-12-31T20:11:38;13.46;83.49
66337;SHT30;53139;45.576;5.304;2022-12-31T20:14:39;13.33;84.03
66337;SHT30;53139;45.576;5.304;2022-12-31T20:17:39;13.39;83.72
66337;SHT30;53139;45.576;5.304;2022-12-31T20:20:44;13.60;82.90
66337;SHT30;53139;45.576;5.304;2022-12-31T20:23:47;13.50;83.40
66337;SHT30;53139;45.576;5.304;2022-12-31T20:26:47;13.43;83.51
66337;SHT30;53139;45.576;5.304;2022-12-31T20:29:48;13.27;84.22
66337;SHT30;53139;45.576;5.304;2022-12-31T20:32:49;13.19;84.19
66337;SHT30;53139;45.576;5.304;2022-12-31T20:35:51;13.55;82.72
66337;SHT30;53139;45.576;5.304;2022-12-31T20:38:51;13.68;81.63
66337;SHT30;53139;45.576;5.304;2022-12-31T20:41:51;13.26;83.94
66337;SHT30;53139;45.576;5.304;2022-12-31T20:44:52;13.32;83.63
66337;SHT30;53139;45.576;5.304;2022-12-31T20:47:52;13.53;82.67
66337;SHT30;53139;45.576;5.304;2022-12-31T20:50:54;13.65;81.39
66337;SHT30;53139;45.576;5.304;2022-12-31T20:53:57;13.36;83.16
66337;SHT30;53139;45.576;5.304;2022-12-31T20:56:57;13.36;83.28
66337;SHT30;53139;45.576;5.304;2022-12-31T20:59:59;13.60;81.83
66337;SHT30;53139;45.576;5.304;2022-12-31T21:02:59;13.43;82.83
66337;SHT30;53139;45.576;5.304;2022-12-31T21:05:59;13.79;81.75
66337;SHT30;53139;45.576;5.304;2022-12-31T21:09:02;13.30;83.11
66337;SHT30;53139;45.576;5.304;2022-12-31T21:12:02;13.12;84.54
66337;SHT30;53139;45.576;5.304;2022-12-31T21:15:21;13.64;81.57
66337;SHT30;53139;45.576;5.304;2022-12-31T21:18:22;13.40;82.54
66337;SHT30;53139;45.576;5.304;2022-12-31T21:21:22;13.57;81.92
66337;SHT30;53139;45.576;5.304;2022-12-31T21:24:23;13.57;81.28
66337;SHT30;53139;45.576;5.304;2022-12-31T21:27:23;13.72;80.92
66337;SHT30;53139;45.576;5.304;2022-12-31T21:30:23;13.55;81.68
66337;SHT30;53139;45.576;5.304;2022-12-31T21:33:24;13.65;81.26
66337;SHT30;53139;45.576;5.304;2022-12-31T21:36:24;13.86;80.37
66337;SHT30;53139;45.576;5.304;2022-12-31T21:39:25;13.67;81.18
66337;SHT30;53139;45.576;5.304;2022-12-31T21:42:25;13.43;82.63
66337;SHT30;53139;45.576;5.304;2022-12-31T21:45:25;13.57;81.97
66337;SHT30;53139;45.576;5.304;2022-12-31T21:48:26;13.94;80.09
66337;SHT30;53139;45.576;5.304;2022-12-31T21:51:27;13.53;81.56
66337;SHT30;53139;45.576;5.304;2022-12-31T21:54:27;12.92;83.98
66337;SHT30;53139;45.576;5.304;2022-12-31T21:57:48;13.10;83.88
66337;SHT30;53139;45.576;5.304;2022-12-31T22:00:49;13.64;81.10
66337;SHT30;53139;45.576;5.304;2022-12-31T22:04:08;14.13;79.28
66337;SHT30;53139;45.576;5.304;2022-12-31T22:07:08;13.60;81.56
66337;SHT30;53139;45.576;5.304;2022-12-31T22:10:08;13.55;81.61
66337;SHT30;53139;45.576;5.304;2022-12-31T22:13:09;13.43;82.28
66337;SHT30;53139;45.576;5.304;2022-12-31T22:16:09;13.12;83.72
66337;SHT30;53139;45.576;5.304;2022-12-31T22:19:11;13.26;83.23
66337;SHT30;53139;45.576;5.304;2022-12-31T22:22:12;13.39;82.33
66337;SHT30;53139;45.576;5.304;2022-12-31T22:25:12;13.63;81.23
66337;SHT30;53139;45.576;5.304;2022-12-31T22:28:12;13.48;81.49
66337;SHT30;53139;45.576;5.304;2022-12-31T22:31:15;13.55;81.34
66337;SHT30;53139;45.576;5.304;2022-12-31T22:34:16;13.60;81.32
66337;SHT30;53139;45.576;5.304;2022-12-31T22:37:16;13.24;83.01
66337;SHT30;53139;45.576;5.304;2022-12-31T22:40:16;13.30;82.46
66337;SHT30;53139;45.576;5.304;2022-12-31T22:43:17;13.28;83.05
66337;SHT30;53139;45.576;5.304;2022-12-31T22:49:18;13.16;82.31
66337;SHT30;53139;45.576;5.304;2022-12-31T22:52:19;13.34;82.04
66337;SHT30;53139;45.576;5.304;2022-12-31T22:55:19;13.09;82.42
66337;SHT30;53139;45.576;5.304;2022-12-31T22:58:21;13.17;82.29
66337;SHT30;53139;45.576;5.304;2022-12-31T23:01:23;13.03;83.48
66337;SHT30;53139;45.576;5.304;2022-12-31T23:04:24;12.87;83.45
66337;SHT30;53139;45.576;5.304;2022-12-31T23:07:24;12.82;84.77
66337;SHT30;53139;45.576;5.304;2022-12-31T23:10:24;12.64;86.17
66337;SHT30;53139;45.576;5.304;2022-12-31T23:13:43;12.98;83.10
66337;SHT30;53139;45.576;5.304;2022-12-31T23:17:02;12.88;83.51
66337;SHT30;53139;45.576;5.304;2022-12-31T23:20:24;12.78;84.04
66337;SHT30;53139;45.576;5.304;2022-12-31T23:23:43;12.77;84.20
66337;SHT30;53139;45.576;5.304;2022-12-31T23:26:43;12.85;83.48
66337;SHT30;53139;45.576;5.304;2022-12-31T23:29:44;13.02;82.76
66337;SHT30;53139;45.576;5.304;2022-12-31T23:32:44;13.22;82.02
66337;SHT30;53139;45.576;5.304;2022-12-31T23:35:45;13.00;82.66
66337;SHT30;53139;45.576;5.304;2022-12-31T23:38:45;13.19;81.80
66337;SHT30;53139;45.576;5.304;2022-12-31T23:41:48;12.95;83.65
66337;SHT30;53139;45.576;5.304;2022-12-31T23:44:48;13.12;82.13
66337;SHT30;53139;45.576;5.304;2022-12-31T23:47:49;12.93;83.30
66337;SHT30;53139;45.576;5.304;2022-12-31T23:50:49;13.22;81.69
66337;SHT30;53139;45.576;5.304;2022-12-31T23:53:50;13.19;81.78
66337;SHT30;53139;45.576;5.304;2022-12-31T23:56:50;13.20;82.08
66337;SHT30;53139;45.576;5.304;2022-12-31T23:59:51;13.12;82.15
